Terminal Aerodrome Forecast
Issued by NWS

Home | Current Version | Previous Version | Text Only | Print | Product List | Glossary On
Versions: 1 2 3 4 5 6 7 8 9 10 11 12 13 14 15 16 17 18 19 20 21 22 23 24 25 26 27
000
FTUS45 KREV 222300
TAFTVL
TAF
KTVL 222339Z 2300/2324 VRB03KT 5SM HZ FEW020 SCT180
     FM230400 VRB03KT P6SM FEW180
     FM231800 19010KT 5SM FU HZ SCT180=

USA.gov is the U.S. government's official web portal to all federal, state and local government web resources and services.